Terminal Aerodrome Forecast
Issued by NWS

Home | Current Version | Previous Version | Text Only | Print | Product List | Glossary On
Versions: 1 2 3 4 5 6 7 8 9 10 11 12 13 14 15 16 17 18 19 20 21 22 23
318
FTUS43 KBIS 231319 AAA
TAFDIK
TAF AMD
KDIK 231319Z 2313/2412 17004KT 6SM BR BKN008
     FM231700 08007KT P6SM OVC008
     FM232300 05009KT P6SM -SN OVC008
     FM240200 03009KT 4SM -SN OVC008=

USA.gov is the U.S. government's official web portal to all federal, state and local government web resources and services.